Observation data for Tulia on 02/14/2020      Previous  Date  Next       Current Mesonet Observations  Soil Data  Daily Summary Page  Observations in Plain Language
KTIS 140600Z 11011KT M05/M09 A3027 RMK A01 T10541088  RH  077%=      5-min Rain = 0
KTIS 140605Z 11011KT M05/M09 A3027 RMK A01 T10541088  RH  077%=      5-min Rain = 0
KTIS 140610Z 11011KT M06/M09 A3027 RMK A01 T10551089  RH  077%=      5-min Rain = 0
KTIS 140615Z 11010KT M06/M09 A3027 RMK A01 T10561089  RH  077%=      5-min Rain = 0
KTIS 140620Z 11011KT M06/M09 A3027 RMK A01 T10561089  RH  077%=      5-min Rain = 0
KTIS 140625Z 11010KT M06/M09 A3027 RMK A01 T10571089  RH  078%=      5-min Rain = 0
KTIS 140630Z 11008KT M06/M09 A3027 RMK A01 T10571087  RH  079%=      5-min Rain = 0
KTIS 140635Z 11009KT M06/M09 A3027 RMK A01 T10581087  RH  080%=      5-min Rain = 0
KTIS 140640Z 11008KT M06/M09 A3027 RMK A01 T10591087  RH  080%=      5-min Rain = 0
KTIS 140645Z 11008KT M06/M09 A3027 RMK A01 T10591087  RH  080%=      5-min Rain = 0
KTIS 140650Z 11008KT M06/M09 A3028 RMK A01 T10601088  RH  081%=      5-min Rain = 0
KTIS 140655Z 13008KT M06/M09 A3028 RMK A01 T10601088  RH  081%=      5-min Rain = 0
KTIS 140700Z 12009KT M06/M09 A3028 RMK A01 T10611091  RH  079%=      5-min Rain = 0
KTIS 140705Z 12010KT M06/M09 A3028 RMK A01 T10611093  RH  078%=      5-min Rain = 0
KTIS 140710Z 12009KT M06/M09 A3028 RMK A01 T10611093  RH  078%=      5-min Rain = 0
KTIS 140715Z 12009KT M06/M09 A3028 RMK A01 T10611093  RH  078%=      5-min Rain = 0
KTIS 140720Z 12009KT M06/M09 A3029 RMK A01 T10621092  RH  079%=      5-min Rain = 0
KTIS 140725Z 12010KT M06/M09 A3029 RMK A01 T10621094  RH  078%=      5-min Rain = 0
KTIS 140730Z 12009KT M06/M10 A3029 RMK A01 T10631095  RH  078%=      5-min Rain = 0
KTIS 140735Z 12008KT M06/M09 A3029 RMK A01 T10631094  RH  078%=      5-min Rain = 0
KTIS 140740Z 12008KT M06/M09 A3029 RMK A01 T10641094  RH  079%=      5-min Rain = 0
KTIS 140745Z 12008KT M06/M09 A3029 RMK A01 T10641094  RH  079%=      5-min Rain = 0
KTIS 140750Z 11007KT M06/M09 A303 RMK A01 T10641094  RH  080%=      5-min Rain = 0
KTIS 140755Z 11007KT M07/M10 A303 RMK A01 T10651095  RH  079%=      5-min Rain = 0
KTIS 140800Z 11007KT M07/M10 A303 RMK A01 T10661095  RH  079%=      5-min Rain = 0
KTIS 140805Z 11006KT M07/M09 A303 RMK A01 T10651094  RH  080%=      5-min Rain = 0
KTIS 140810Z 11006KT M07/M09 A303 RMK A01 T10651094  RH  080%=      5-min Rain = 0
KTIS 140815Z 11007KT M07/M10 A303 RMK A01 T10651095  RH  079%=      5-min Rain = 0
KTIS 140820Z 11007KT M07/M10 A303 RMK A01 T10661097  RH  078%=      5-min Rain = 0
KTIS 140825Z 11007KT M07/M10 A303 RMK A01 T10651097  RH  078%=      5-min Rain = 0
KTIS 140830Z 11007KT M07/M10 A303 RMK A01 T10661097  RH  078%=      5-min Rain = 0
KTIS 140835Z 11006KT M07/M10 A303 RMK A01 T10661099  RH  078%=      5-min Rain = 0
KTIS 140840Z 11006KT M07/M10 A303 RMK A01 T10661098  RH  078%=      5-min Rain = 0
KTIS 140845Z 11006KT M07/M10 A303 RMK A01 T10661098  RH  078%=      5-min Rain = 0
KTIS 140850Z 11006KT M07/M10 A303 RMK A01 T10671098  RH  079%=      5-min Rain = 0
KTIS 140855Z 11006KT M07/M10 A3029 RMK A01 T10681099  RH  079%=      5-min Rain = 0
KTIS 140900Z 12005KT M07/M10 A3029 RMK A01 T10681098  RH  079%=      5-min Rain = 0
KTIS 140905Z 12005KT M07/M10 A3029 RMK A01 T10681097  RH  080%=      5-min Rain = 0
KTIS 140910Z 11005KT M07/M10 A3029 RMK A01 T10691096  RH  081%=      5-min Rain = 0
KTIS 140915Z 11005KT M07/M10 A3029 RMK A01 T10691095  RH  081%=      5-min Rain = 0
KTIS 140920Z 11005KT M07/M10 A3029 RMK A01 T10701096  RH  081%=      5-min Rain = 0
KTIS 140925Z 11005KT M07/M10 A3029 RMK A01 T10691096  RH  081%=      5-min Rain = 0
KTIS 140930Z 11005KT M07/M10 A3029 RMK A01 T10691096  RH  081%=      5-min Rain = 0
KTIS 140935Z 11006KT M07/M10 A3029 RMK A01 T10691097  RH  080%=      5-min Rain = 0
KTIS 140940Z 11006KT M07/M10 A3029 RMK A01 T10681096  RH  081%=      5-min Rain = 0
KTIS 140945Z 11006KT M07/M10 A3029 RMK A01 T10681096  RH  080%=      5-min Rain = 0
KTIS 140950Z 11006KT M07/M10 A3029 RMK A01 T10681096  RH  080%=      5-min Rain = 0
KTIS 140955Z 11006KT M07/M10 A3029 RMK A01 T10681097  RH  080%=      5-min Rain = 0
KTIS 141000Z 12006KT M07/M10 A3029 RMK A01 T10681096  RH  080%=      5-min Rain = 0
KTIS 141005Z 12006KT M07/M10 A3029 RMK A01 T10681097  RH  079%=      5-min Rain = 0
KTIS 141010Z 12006KT M07/M10 A3028 RMK A01 T10681096  RH  080%=      5-min Rain = 0
KTIS 141015Z 12007KT M07/M10 A3029 RMK A01 T10671095  RH  080%=      5-min Rain = 0
KTIS 141020Z 12007KT M07/M10 A3028 RMK A01 T10661096  RH  079%=      5-min Rain = 0
KTIS 141025Z 13007KT M07/M09 A3028 RMK A01 T10651094  RH  080%=      5-min Rain = 0
KTIS 141030Z 13007KT M07/M10 A3028 RMK A01 T10661096  RH  079%=      5-min Rain = 0
KTIS 141035Z 12008KT M07/M10 A3028 RMK A01 T10661096  RH  079%=      5-min Rain = 0
KTIS 141040Z 12007KT M07/M09 A3028 RMK A01 T10651094  RH  080%=      5-min Rain = 0
KTIS 141045Z 12007KT M07/M10 A3028 RMK A01 T10661095  RH  080%=      5-min Rain = 0
KTIS 141050Z 13007KT M07/M09 A3028 RMK A01 T10661093  RH  081%=      5-min Rain = 0
KTIS 141055Z 13007KT M07/M09 A3028 RMK A01 T10651092  RH  081%=      5-min Rain = 0
KTIS 141100Z 14008KT M06/M09 A3028 RMK A01 T10641092  RH  081%=      5-min Rain = 0
KTIS 141105Z 14009KT M07/M09 A3028 RMK A01 T10651093  RH  080%=      5-min Rain = 0
KTIS 141110Z 14008KT M07/M09 A3028 RMK A01 T10651092  RH  081%=      5-min Rain = 0
KTIS 141115Z 14008KT M07/M09 A3028 RMK A01 T10651092  RH  081%=      5-min Rain = 0
KTIS 141120Z 14008KT M06/M09 A3027 RMK A01 T10641091  RH  081%=      5-min Rain = 0
KTIS 141125Z 14008KT M06/M09 A3027 RMK A01 T10641091  RH  081%=      5-min Rain = 0
KTIS 141130Z 15009KT M06/M09 A3028 RMK A01 T10631091  RH  081%=      5-min Rain = 0
KTIS 141135Z 15009KT M06/M09 A3027 RMK A01 T10641092  RH  080%=      5-min Rain = 0
KTIS 141140Z 15008KT M06/M09 A3028 RMK A01 T10631091  RH  081%=      5-min Rain = 0
KTIS 141145Z 15008KT M06/M09 A3028 RMK A01 T10631091  RH  081%=      5-min Rain = 0
KTIS 141150Z 16008KT M06/M09 A3028 RMK A01 T10631090  RH  081%=      5-min Rain = 0
KTIS 141155Z 15009KT M06/M09 A3028 RMK A01 T10631090  RH  081%=      5-min Rain = 0
KTIS 141200Z 15009KT M06/M09 A3028 RMK A01 T10631090  RH  081%=      5-min Rain = 0
KTIS 141205Z 15009KT M06/M09 A3028 RMK A01 T10621089  RH  081%=      5-min Rain = 0
KTIS 141210Z 16009KT M06/M09 A3028 RMK A01 T10621088  RH  082%=      5-min Rain = 0
KTIS 141215Z 16009KT M06/M09 A3028 RMK A01 T10621088  RH  082%=      5-min Rain = 0
KTIS 141220Z 16008KT M06/M09 A3028 RMK A01 T10621089  RH  081%=      5-min Rain = 0
KTIS 141225Z 15008KT M06/M09 A3028 RMK A01 T10621088  RH  082%=      5-min Rain = 0
KTIS 141230Z 16008KT M06/M09 A3028 RMK A01 T10621087  RH  082%=      5-min Rain = 0
KTIS 141235Z 16008KT M06/M09 A3028 RMK A01 T10621087  RH  082%=      5-min Rain = 0
KTIS 141240Z 15008KT M06/M09 A3028 RMK A01 T10611086  RH  082%=      5-min Rain = 0
KTIS 141245Z 15008KT M06/M09 A3028 RMK A01 T10611086  RH  082%=      5-min Rain = 0
KTIS 141250Z 16008KT M06/M09 A3028 RMK A01 T10601086  RH  082%=      5-min Rain = 0
KTIS 141255Z 16008KT M06/M08 A3028 RMK A01 T10591084  RH  082%=      5-min Rain = 0
KTIS 141300Z 16009KT M06/M09 A3028 RMK A01 T10591085  RH  082%=      5-min Rain = 0
KTIS 141305Z 16008KT M06/M08 A3028 RMK A01 T10581084  RH  082%=      5-min Rain = 0
KTIS 141310Z 16009KT M06/M08 A3028 RMK A01 T10581084  RH  082%=      5-min Rain = 0
KTIS 141315Z 16009KT M06/M09 A3028 RMK A01 T10581085  RH  081%=      5-min Rain = 0
KTIS 141320Z 16009KT M06/M09 A3028 RMK A01 T10581085  RH  081%=      5-min Rain = 0
KTIS 141325Z 16010KT M06/M08 A3028 RMK A01 T10581084  RH  081%=      5-min Rain = 0
KTIS 141330Z 16010KT M06/M08 A3028 RMK A01 T10571084  RH  081%=      5-min Rain = 0
KTIS 141335Z 16011KT M06/M09 A3028 RMK A01 T10571085  RH  081%=      5-min Rain = 0
KTIS 141340Z 17010KT M06/M08 A3028 RMK A01 T10571083  RH  082%=      5-min Rain = 0
KTIS 141345Z 17011KT M06/M08 A3028 RMK A01 T10571084  RH  081%=      5-min Rain = 0
KTIS 141350Z 16012KT M06/M08 A3028 RMK A01 T10561084  RH  081%=      5-min Rain = 0
KTIS 141355Z 17010KT M06/M08 A3029 RMK A01 T10561083  RH  081%=      5-min Rain = 0
KTIS 141400Z 16010KT M06/M08 A3029 RMK A01 T10561083  RH  081%=      5-min Rain = 0
KTIS 141405Z 16010KT M06/M08 A3029 RMK A01 T10551082  RH  081%=      5-min Rain = 0
KTIS 141410Z 16010KT M06/M08 A3029 RMK A01 T10551082  RH  081%=      5-min Rain = 0
KTIS 141415Z 17009KT M05/M08 A303 RMK A01 T10541082  RH  081%=      5-min Rain = 0
KTIS 141420Z 17011KT M05/M08 A303 RMK A01 T10541081  RH  082%=      5-min Rain = 0
KTIS 141425Z 17010KT M05/M08 A303 RMK A01 T10541078  RH  083%=      5-min Rain = 0
KTIS 141430Z 18012KT M05/M08 A3029 RMK A01 T10541078  RH  083%=      5-min Rain = 0
KTIS 141435Z 17011KT M05/M08 A3029 RMK A01 T10531077  RH  084%=      5-min Rain = 0
KTIS 141440Z 17011KT M05/M08 A3029 RMK A01 T10531075  RH  084%=      5-min Rain = 0
KTIS 141445Z 17011KT M05/M07 A3029 RMK A01 T10521073  RH  085%=      5-min Rain = 0
KTIS 141450Z 17010KT M05/M07 A3029 RMK A01 T10511072  RH  086%=      5-min Rain = 0
KTIS 141455Z 17011KT M05/M07 A3029 RMK A01 T10501071  RH  085%=      5-min Rain = 0
KTIS 141500Z 17010KT M05/M07 A3029 RMK A01 T10501070  RH  086%=      5-min Rain = 0
KTIS 141505Z 17011KT M05/M07 A3029 RMK A01 T10491068  RH  087%=      5-min Rain = 0
KTIS 141510Z 17012KT M05/M07 A3029 RMK A01 T10481066  RH  087%=      5-min Rain = 0
KTIS 141515Z 17011KT M05/M07 A3029 RMK A01 T10471065  RH  087%=      5-min Rain = 0
KTIS 141520Z 17011KT M05/M06 A3029 RMK A01 T10471064  RH  088%=      5-min Rain = 0
KTIS 141525Z 17010KT M05/M06 A303 RMK A01 T10461062  RH  089%=      5-min Rain = 0
KTIS 141530Z 17012KT M05/M06 A303 RMK A01 T10461063  RH  088%=      5-min Rain = 0
KTIS 141535Z 16012KT M05/M06 A303 RMK A01 T10461062  RH  089%=      5-min Rain = 0
KTIS 141540Z 17012KT M05/M06 A3029 RMK A01 T10461060  RH  090%=      5-min Rain = 0
KTIS 141545Z 17012KT M04/M06 A3029 RMK A01 T10441057  RH  091%=      5-min Rain = 0
KTIS 141550Z 17012KT M04/M06 A3029 RMK A01 T10421056  RH  090%=      5-min Rain = 0
KTIS 141555Z 17012KT M04/M05 A3029 RMK A01 T10411054  RH  090%=      5-min Rain = 0
KTIS 141600Z 17012KT M04/M06 A3029 RMK A01 T10401055  RH  090%=      5-min Rain = 0
KTIS 141605Z 17011KT M04/M05 A3029 RMK A01 T10391054  RH  090%=      5-min Rain = 0
KTIS 141610Z 17012KT M04/M05 A3029 RMK A01 T10371052  RH  089%=      5-min Rain = 0
KTIS 141615Z 17013KT M04/M05 A3029 RMK A01 T10361052  RH  089%=      5-min Rain = 0
KTIS 141620Z 17013KT M04/M05 A3029 RMK A01 T10351050  RH  089%=      5-min Rain = 0
KTIS 141625Z 17013KT M03/M05 A3028 RMK A01 T10341049  RH  090%=      5-min Rain = 0
KTIS 141630Z 18013KT M03/M05 A3028 RMK A01 T10321046  RH  090%=      5-min Rain = 0
KTIS 141635Z 17012KT M03/M05 A3028 RMK A01 T10321045  RH  091%=      5-min Rain = 0
KTIS 141640Z 18012KT M03/M04 A3028 RMK A01 T10301043  RH  091%=      5-min Rain = 0
KTIS 141645Z 18013KT M03/M04 A3028 RMK A01 T10281041  RH  091%=      5-min Rain = 0
KTIS 141650Z 18012KT M03/M04 A3028 RMK A01 T10271040  RH  091%=      5-min Rain = 0
KTIS 141655Z 18012KT M03/M04 A3028 RMK A01 T10261039  RH  091%=      5-min Rain = 0
KTIS 141700Z 18013KT M03/M04 A3028 RMK A01 T10251039  RH  091%=      5-min Rain = 0
KTIS 141705Z 19013KT M03/M04 A3028 RMK A01 T10261039  RH  091%=      5-min Rain = 0
KTIS 141710Z 19013KT M02/M04 A3028 RMK A01 T10241037  RH  092%=      5-min Rain = 0
KTIS 141715Z 18014KT M02/M04 A3027 RMK A01 T10231036  RH  092%=      5-min Rain = 0
KTIS 141720Z 19014KT M02/M04 A3027 RMK A01 T10221035  RH  092%=      5-min Rain = 0
KTIS 141725Z 19013KT M02/M03 A3027 RMK A01 T10211033  RH  092%=      5-min Rain = 0
KTIS 141730Z 18015KT M02/M03 A3027 RMK A01 T10221034  RH  092%=      5-min Rain = 0
KTIS 141735Z 19013KT M02/M03 A3027 RMK A01 T10221034  RH  092%=      5-min Rain = 0
KTIS 141740Z 18014KT M02/M03 A3026 RMK A01 T10211032  RH  092%=      5-min Rain = 0
KTIS 141745Z 19014KT M02/M03 A3026 RMK A01 T10191031  RH  092%=      5-min Rain = 0
KTIS 141750Z 19014KT M02/M03 A3026 RMK A01 T10191031  RH  092%=      5-min Rain = 0
KTIS 141755Z 19014G19KT M02/M03 A3026 RMK A01 T10181030  RH  092%=      5-min Rain = 0
KTIS 141800Z 20014KT M02/M03 A3026 RMK A01 T10181031  RH  092%=      5-min Rain = 0
KTIS 141805Z 20014KT M02/M03 A3025 RMK A01 T10171030  RH  091%=      5-min Rain = 0
KTIS 141810Z 20013KT M02/M03 A3025 RMK A01 T10161030  RH  091%=      5-min Rain = 0
KTIS 141815Z 20014KT M02/M03 A3024 RMK A01 T10151029  RH  091%=      5-min Rain = 0
KTIS 141820Z 20014KT M02/M03 A3024 RMK A01 T10151029  RH  091%=      5-min Rain = 0
KTIS 141825Z 19015KT M01/M03 A3024 RMK A01 T10141029  RH  090%=      5-min Rain = 0
KTIS 141830Z 19015KT M01/M03 A3024 RMK A01 T10141029  RH  090%=      5-min Rain = 0
KTIS 141835Z 19015KT M01/M03 A3023 RMK A01 T10141029  RH  090%=      5-min Rain = 0
KTIS 141840Z 20015G20KT M01/M03 A3023 RMK A01 T10131028  RH  090%=      5-min Rain = 0
KTIS 141845Z 20016KT M01/M03 A3023 RMK A01 T10141030  RH  090%=      5-min Rain = 0
KTIS 141850Z 19015KT M02/M03 A3023 RMK A01 T10151029  RH  090%=      5-min Rain = 0
KTIS 141855Z 19015G20KT M01/M03 A3022 RMK A01 T10141029  RH  091%=      5-min Rain = 0
KTIS 141900Z 20017KT M01/M03 A3022 RMK A01 T10131028  RH  091%=      5-min Rain = 0
KTIS 141905Z 20014KT M01/M03 A3022 RMK A01 T10121027  RH  091%=      5-min Rain = 0
KTIS 141910Z 20015KT M01/M03 A3022 RMK A01 T10121026  RH  091%=      5-min Rain = 0
KTIS 141915Z 20013G19KT M01/M02 A3022 RMK A01 T10101024  RH  091%=      5-min Rain = 0
KTIS 141920Z 20015KT M01/M03 A3021 RMK A01 T10111025  RH  090%=      5-min Rain = 0
KTIS 141925Z 20014G19KT M01/M03 A3021 RMK A01 T10101025  RH  091%=      5-min Rain = 0
KTIS 141930Z 20013KT M01/M02 A302 RMK A01 T10091023  RH  091%=      5-min Rain = 0
KTIS 141935Z 20016KT M01/M02 A302 RMK A01 T10081023  RH  091%=      5-min Rain = 0
KTIS 141940Z 19015G20KT M01/M02 A302 RMK A01 T10071022  RH  091%=      5-min Rain = 0
KTIS 141945Z 20016KT M01/M02 A302 RMK A01 T10071022  RH  090%=      5-min Rain = 0
KTIS 141950Z 19015KT M01/M02 A302 RMK A01 T10061021  RH  091%=      5-min Rain = 0
KTIS 141955Z 20017KT M01/M02 A3019 RMK A01 T10051020  RH  090%=      5-min Rain = 0
KTIS 142000Z 20016KT M00/M02 A3019 RMK A01 T10031019  RH  090%=      5-min Rain = 0
KTIS 142005Z 21015KT M00/M02 A3018 RMK A01 T10021019  RH  089%=      5-min Rain = 0
KTIS 142010Z 21015KT M00/M02 A3018 RMK A01 T10011019  RH  088%=      5-min Rain = 0
KTIS 142015Z 20016KT M00/M02 A3018 RMK A01 T10021019  RH  089%=      5-min Rain = 0
KTIS 142020Z 20016KT M00/M02 A3018 RMK A01 T10011018  RH  089%=      5-min Rain = 0
KTIS 142025Z 20017KT M00/M02 A3018 RMK A01 T10011018  RH  089%=      5-min Rain = 0
KTIS 142030Z 19017KT M00/M02 A3018 RMK A01 T10011018  RH  089%=      5-min Rain = 0
KTIS 142035Z 20017KT 00/02 A3017 RMK A01 T00000-17  RH  089%=      5-min Rain = 0
KTIS 142040Z 19016KT 00/M02 A3017 RMK A01 T00011016  RH  089%=      5-min Rain = 0
KTIS 142045Z 19017KT 00/M02 A3017 RMK A01 T00021015  RH  089%=      5-min Rain = 0
KTIS 142050Z 20016KT 00/M01 A3016 RMK A01 T00041014  RH  089%=      5-min Rain = 0
KTIS 142055Z 19015KT 01/M01 A3016 RMK A01 T00051012  RH  089%=      5-min Rain = 0
KTIS 142100Z 19017KT 01/M01 A3016 RMK A01 T00051013  RH  089%=      5-min Rain = 0
KTIS 142105Z 19016KT 01/M01 A3015 RMK A01 T00051013  RH  089%=      5-min Rain = 0
KTIS 142110Z 19016KT 01/M01 A3015 RMK A01 T00051012  RH  089%=      5-min Rain = 0
KTIS 142115Z 19016KT 01/M01 A3016 RMK A01 T00051013  RH  089%=      5-min Rain = 0
KTIS 142120Z 19014KT 00/M01 A3015 RMK A01 T00031013  RH  090%=      5-min Rain = 0
KTIS 142125Z 19016KT 00/M01 A3015 RMK A01 T00041012  RH  090%=      5-min Rain = 0
KTIS 142130Z 19016KT 01/M01 A3015 RMK A01 T00051012  RH  090%=      5-min Rain = 0
KTIS 142135Z 19016G21KT 00/M01 A3014 RMK A01 T00041012  RH  090%=      5-min Rain = 0
KTIS 142140Z 19016KT 01/M01 A3014 RMK A01 T00051011  RH  090%=      5-min Rain = 0
KTIS 142145Z 19016KT 01/M01 A3014 RMK A01 T00051012  RH  090%=      5-min Rain = 0
KTIS 142150Z 19017G22KT 01/M01 A3014 RMK A01 T00051011  RH  090%=      5-min Rain = 0
KTIS 142155Z 19018KT 01/M01 A3013 RMK A01 T00051011  RH  090%=      5-min Rain = 0
KTIS 142200Z 19017KT 01/M01 A3013 RMK A01 T00061010  RH  090%=      5-min Rain = 0
KTIS 142205Z 19017KT 01/M01 A3013 RMK A01 T00071010  RH  089%=      5-min Rain = 0
KTIS 142210Z 19017KT 01/M01 A3013 RMK A01 T00071010  RH  089%=      5-min Rain = 0
KTIS 142215Z 19017G22KT 01/M01 A3013 RMK A01 T00081009  RH  089%=      5-min Rain = 0
KTIS 142220Z 19018KT 01/M01 A3013 RMK A01 T00071010  RH  089%=      5-min Rain = 0
KTIS 142225Z 19017KT 01/M01 A3013 RMK A01 T00071010  RH  089%=      5-min Rain = 0
KTIS 142230Z 19016G22KT 01/M01 A3013 RMK A01 T00071010  RH  089%=      5-min Rain = 0
KTIS 142235Z 19016KT 01/M01 A3013 RMK A01 T00081010  RH  089%=      5-min Rain = 0
KTIS 142240Z 19016G21KT 01/M01 A3013 RMK A01 T00081009  RH  089%=      5-min Rain = 0
KTIS 142245Z 19017KT 01/M01 A3013 RMK A01 T00081010  RH  089%=      5-min Rain = 0
KTIS 142250Z 19017G22KT 01/M01 A3013 RMK A01 T00081010  RH  089%=      5-min Rain = 0
KTIS 142255Z 19016G22KT 01/M01 A3013 RMK A01 T00071010  RH  089%=      5-min Rain = 0
KTIS 142300Z 19016G21KT 01/M01 A3012 RMK A01 T00071010  RH  089%=      5-min Rain = 0
KTIS 142305Z 19015KT 01/M01 A3012 RMK A01 T00081009  RH  089%=      5-min Rain = 0
KTIS 142310Z 19014KT 01/M01 A3012 RMK A01 T00081009  RH  089%=      5-min Rain = 0
KTIS 142315Z 20015G21KT 01/M01 A3012 RMK A01 T00091009  RH  089%=      5-min Rain = 0
KTIS 142320Z 19016KT 01/M01 A3012 RMK A01 T00071011  RH  089%=      5-min Rain = 0
KTIS 142325Z 20015KT 01/M01 A3012 RMK A01 T00071011  RH  089%=      5-min Rain = 0
KTIS 142330Z 19016KT 01/M01 A3012 RMK A01 T00071010  RH  089%=      5-min Rain = 0
KTIS 142335Z 19015KT 01/M01 A3012 RMK A01 T00071010  RH  089%=      5-min Rain = 0
KTIS 142340Z 18016KT 01/M01 A3012 RMK A01 T00061011  RH  089%=      5-min Rain = 0
KTIS 142345Z 19017KT 01/M01 A3012 RMK A01 T00061011  RH  089%=      5-min Rain = 0
KTIS 142350Z 18013G21KT 01/M01 A3012 RMK A01 T00061011  RH  089%=      5-min Rain = 0
KTIS 142355Z 19017G22KT 01/M01 A3012 RMK A01 T00051011  RH  090%=      5-min Rain = 0
KTIS 150000Z 19016KT 00/M01 A3012 RMK A01 T00041011  RH  090%=      5-min Rain = 0
KTIS 150005Z 19016KT 01/M01 A3012 RMK A01 T00051011  RH  090%=      5-min Rain = 0
KTIS 150010Z 18016KT 01/M01 A3012 RMK A01 T00051011  RH  090%=      5-min Rain = 0
KTIS 150015Z 19017G22KT 01/M01 A3011 RMK A01 T00051011  RH  090%=      5-min Rain = 0
KTIS 150020Z 20019KT 01/M01 A3011 RMK A01 T00051010  RH  090%=      5-min Rain = 0
KTIS 150025Z 20017KT 01/M01 A3011 RMK A01 T00051010  RH  090%=      5-min Rain = 0
KTIS 150030Z 19015KT 01/M01 A3012 RMK A01 T00061010  RH  090%=      5-min Rain = 0
KTIS 150035Z 19016G21KT 01/M01 A3012 RMK A01 T00061010  RH  090%=      5-min Rain = 0
KTIS 150040Z 19017G23KT 01/M01 A3012 RMK A01 T00061010  RH  090%=      5-min Rain = 0
KTIS 150045Z 19018KT 01/M01 A3012 RMK A01 T00061009  RH  090%=      5-min Rain = 0
KTIS 150050Z 19015G20KT 01/M01 A3012 RMK A01 T00071009  RH  090%=      5-min Rain = 0
KTIS 150055Z 19013G18KT 01/M01 A3012 RMK A01 T00061009  RH  090%=      5-min Rain = 0
KTIS 150100Z 18016KT 01/M01 A3012 RMK A01 T00061009  RH  091%=      5-min Rain = 0
KTIS 150105Z 20019KT 01/M01 A3012 RMK A01 T00061009  RH  091%=      5-min Rain = 0
KTIS 150110Z 20015KT 01/M01 A3012 RMK A01 T00051010  RH  091%=      5-min Rain = 0
KTIS 150115Z 19013KT 01/M01 A3013 RMK A01 T00061009  RH  091%=      5-min Rain = 0
KTIS 150120Z 19016G25KT 01/M01 A3013 RMK A01 T00061009  RH  091%=      5-min Rain = 0
KTIS 150125Z 20018G24KT 01/M01 A3012 RMK A01 T00051010  RH  091%=      5-min Rain = 0
KTIS 150130Z 20017KT 01/M01 A3012 RMK A01 T00061009  RH  090%=      5-min Rain = 0
KTIS 150135Z 19015G20KT 01/M01 A3012 RMK A01 T00071009  RH  090%=      5-min Rain = 0
KTIS 150140Z 19017G23KT 01/M01 A3012 RMK A01 T00061009  RH  090%=      5-min Rain = 0
KTIS 150145Z 20019KT 01/M01 A3012 RMK A01 T00051010  RH  090%=      5-min Rain = 0
KTIS 150150Z 20017G22KT 01/M01 A3012 RMK A01 T00051010  RH  090%=      5-min Rain = 0
KTIS 150155Z 20014G20KT 00/M01 A3012 RMK A01 T00041010  RH  091%=      5-min Rain = 0
KTIS 150200Z 20015KT 00/M01 A3012 RMK A01 T00041010  RH  091%=      5-min Rain = 0
KTIS 150205Z 20014G19KT 00/M01 A3012 RMK A01 T00031011  RH  091%=      5-min Rain = 0
KTIS 150210Z 19015KT 00/M01 A3012 RMK A01 T00031011  RH  091%=      5-min Rain = 0
KTIS 150215Z 19013KT 00/M01 A3012 RMK A01 T00011013  RH  092%=      5-min Rain = 0
KTIS 150220Z 20010KT 00/M01 A3012 RMK A01 T00011012  RH  092%=      5-min Rain = 0
KTIS 150225Z 20010KT 00/M01 A3012 RMK A01 T00021011  RH  093%=      5-min Rain = 0
KTIS 150230Z 20011KT 00/M01 A3012 RMK A01 T00021010  RH  093%=      5-min Rain = 0
KTIS 150235Z 20013KT 00/M01 A3012 RMK A01 T00031009  RH  093%=      5-min Rain = 0
KTIS 150240Z 20013KT 00/M01 A3012 RMK A01 T00041008  RH  093%=      5-min Rain = 0
KTIS 150245Z 20013G18KT 01/M01 A3012 RMK A01 T00051007  RH  093%=      5-min Rain = 0
KTIS 150250Z 20014KT 01/M01 A3011 RMK A01 T00051006  RH  093%=      5-min Rain = 0
KTIS 150255Z 20014G19KT 01/M01 A3011 RMK A01 T00051006  RH  093%=      5-min Rain = 0
KTIS 150300Z 20014KT 01/M01 A3012 RMK A01 T00061005  RH  093%=      5-min Rain = 0
KTIS 150305Z 21013G19KT 01/M01 A3012 RMK A01 T00061005  RH  093%=      5-min Rain = 0
KTIS 150310Z 21012KT 01/M01 A3012 RMK A01 T00061005  RH  093%=      5-min Rain = 0
KTIS 150315Z 21013KT 01/M01 A3012 RMK A01 T00061005  RH  094%=      5-min Rain = 0
KTIS 150320Z 21012KT 01/M01 A3012 RMK A01 T00061005  RH  094%=      5-min Rain = 0
KTIS 150325Z 21011KT 01/M01 A3012 RMK A01 T00051005  RH  094%=      5-min Rain = 0
KTIS 150330Z 21011KT 01/M01 A3012 RMK A01 T00051005  RH  094%=      5-min Rain = 0
KTIS 150335Z 21012KT 01/M01 A3011 RMK A01 T00051005  RH  094%=      5-min Rain = 0
KTIS 150340Z 21012KT 00/M01 A3011 RMK A01 T00031006  RH  094%=      5-min Rain = 0
KTIS 150345Z 21012KT 00/M01 A3011 RMK A01 T00031007  RH  094%=      5-min Rain = 0
KTIS 150350Z 21012KT 00/M01 A301 RMK A01 T00021008  RH  094%=      5-min Rain = 0
KTIS 150355Z 21011KT 00/M01 A3011 RMK A01 T00011008  RH  094%=      5-min Rain = 0
KTIS 150400Z 21011KT 00/M01 A301 RMK A01 T00011009  RH  095%=      5-min Rain = 0
KTIS 150405Z 21011KT 00/M01 A301 RMK A01 T00011008  RH  095%=      5-min Rain = 0
KTIS 150410Z 21009KT 00/M01 A301 RMK A01 T00011008  RH  095%=      5-min Rain = 0
KTIS 150415Z 21010KT 00/M01 A301 RMK A01 T00011008  RH  095%=      5-min Rain = 0
KTIS 150420Z 21011KT 00/M01 A301 RMK A01 T00021008  RH  094%=      5-min Rain = 0
KTIS 150425Z 21011KT 00/M01 A301 RMK A01 T00021008  RH  094%=      5-min Rain = 0
KTIS 150430Z 21012KT 00/M01 A301 RMK A01 T00031007  RH  094%=      5-min Rain = 0
KTIS 150435Z 21012KT 00/M01 A301 RMK A01 T00031007  RH  094%=      5-min Rain = 0
KTIS 150440Z 21010KT 00/M01 A301 RMK A01 T00031007  RH  093%=      5-min Rain = 0
KTIS 150445Z 21010KT 00/M01 A301 RMK A01 T00031008  RH  093%=      5-min Rain = 0
KTIS 150450Z 21011KT 00/M01 A301 RMK A01 T00031008  RH  093%=      5-min Rain = 0
KTIS 150455Z 21011KT 00/M01 A301 RMK A01 T00021009  RH  093%=      5-min Rain = 0
KTIS 150500Z 21012KT 00/M01 A3009 RMK A01 T00021009  RH  093%=      5-min Rain = 0
KTIS 150505Z 21012KT 00/M01 A3009 RMK A01 T00021008  RH  093%=      5-min Rain = 0
KTIS 150510Z 21012KT 00/M01 A3009 RMK A01 T00031008  RH  093%=      5-min Rain = 0
KTIS 150515Z 21013KT 00/M01 A3008 RMK A01 T00031008  RH  093%=      5-min Rain = 0
KTIS 150520Z 21013KT 00/M01 A3008 RMK A01 T00041008  RH  093%=      5-min Rain = 0
KTIS 150525Z 21014KT 00/M01 A3008 RMK A01 T00041007  RH  093%=      5-min Rain = 0
KTIS 150530Z 21014KT 00/M01 A3008 RMK A01 T00041008  RH  093%=      5-min Rain = 0
KTIS 150535Z 21013KT 00/M01 A3008 RMK A01 T00031008  RH  093%=      5-min Rain = 0
KTIS 150540Z 21013KT 00/M01 A3008 RMK A01 T00031008  RH  093%=      5-min Rain = 0
KTIS 150545Z 21013KT 00/M01 A3008 RMK A01 T00031008  RH  093%=      5-min Rain = 0
KTIS 150550Z 21014KT 00/M01 A3008 RMK A01 T00041007  RH  093%=      5-min Rain = 0
KTIS 150555Z 21012KT 00/M01 A3008 RMK A01 T00041007  RH  093%=      5-min Rain = 0

Page generated in 0.0227 seconds.